Time;durP1;ratioP1;P1;durP2;ratioP2;P2;SDS_P1;SDS_P2;PMS_P1;PMS_P2;Temp;Humidity;BMP_temperature;BMP_pressure;BME280_temperature;BME280_humidity;BME280_pressure;Samples;Min_cycle;Max_cycle;Signal;HPM_P1;HPM_P2
2021/03/23 00:00:33;;;;;;;1.30;1.20;;;20.00;20.20;;;;;;5034067;28;20203;-50
2021/03/23 00:03:14;;;;;;;0.98;0.88;;;20.00;20.20;;;;;;5035946;28;20180;-50
2021/03/23 00:05:43;;;;;;;1.45;1.35;;;20.00;20.20;;;;;;5035843;28;20675;-50
2021/03/23 00:08:24;;;;;;;2.67;1.10;;;20.00;20.20;;;;;;5035995;28;20163;-49
2021/03/23 00:10:50;;;;;;;1.10;0.90;;;20.00;20.20;;;;;;5035495;28;20233;-49
2021/03/23 00:13:16;;;;;;;1.08;0.93;;;20.00;20.20;;;;;;5035802;28;20745;-50
2021/03/23 00:15:43;;;;;;;1.30;1.20;;;20.00;20.80;;;;;;5035132;28;20152;-50
2021/03/23 00:18:10;;;;;;;1.02;0.98;;;20.00;20.20;;;;;;5035824;28;20182;-49
2021/03/23 00:20:38;;;;;;;1.40;1.10;;;20.00;20.20;;;;;;5035635;28;20164;-50
2021/03/23 00:23:05;;;;;;;1.70;1.27;;;20.00;20.20;;;;;;5035735;28;20210;-51
2021/03/23 00:25:31;;;;;;;2.25;1.20;;;20.00;20.20;;;;;;5035223;28;20160;-50
2021/03/23 00:27:56;;;;;;;1.40;1.30;;;20.00;20.20;;;;;;5035445;28;20341;-50
2021/03/23 00:30:22;;;;;;;1.00;0.90;;;20.00;20.20;;;;;;5034918;28;20203;-51
2021/03/23 00:32:48;;;;;;;0.82;0.82;;;20.00;20.20;;;;;;5035513;28;20205;-50
2021/03/23 00:35:17;;;;;;;1.93;0.90;;;20.00;20.20;;;;;;5035505;28;20247;-52
2021/03/23 00:37:44;;;;;;;1.35;0.90;;;20.00;20.20;;;;;;5035140;28;20509;-52
2021/03/23 00:40:15;;;;;;;1.20;1.00;;;20.00;20.20;;;;;;5035027;28;20182;-52
2021/03/23 00:42:40;;;;;;;1.00;0.90;;;20.00;20.20;;;;;;5035243;28;20611;-53
2021/03/23 00:45:07;;;;;;;1.17;1.07;;;20.00;20.20;;;;;;5034888;28;20214;-52
2021/03/23 00:47:41;;;;;;;1.27;1.17;;;20.00;20.20;;;;;;5035128;28;20872;-52
2021/03/23 00:50:08;;;;;;;1.23;1.13;;;20.00;20.20;;;;;;5034803;28;20273;-52
2021/03/23 00:52:34;;;;;;;1.15;0.95;;;20.00;20.20;;;;;;5034890;28;20172;-52
2021/03/23 00:55:00;;;;;;;1.27;1.17;;;20.00;20.20;;;;;;5034951;28;20160;-52
2021/03/23 00:57:25;;;;;;;1.47;1.10;;;20.00;20.20;;;;;;5034844;28;20852;-51
2021/03/23 00:59:51;;;;;;;1.20;1.10;;;20.00;20.20;;;;;;5034431;28;20175;-52
2021/03/23 01:02:17;;;;;;;1.50;1.40;;;20.00;20.20;;;;;;5024258;28;20208;-52
2021/03/23 01:04:42;;;;;;;1.00;1.00;;;20.00;20.20;;;;;;5047703;28;20182;-52
2021/03/23 01:07:08;;;;;;;1.00;0.90;;;20.00;20.20;;;;;;5034976;28;20164;-52
2021/03/23 01:09:49;;;;;;;1.35;1.02;;;19.90;20.20;;;;;;5033194;28;20175;-52
2021/03/23 01:12:15;;;;;;;0.93;0.90;;;19.90;20.20;;;;;;5034711;28;20152;-52
2021/03/23 01:14:43;;;;;;;0.90;0.70;;;19.90;20.20;;;;;;5034095;28;20665;-53
2021/03/23 01:17:09;;;;;;;1.23;1.00;;;19.90;20.20;;;;;;5034695;28;20215;-52
2021/03/23 01:19:35;;;;;;;1.55;0.70;;;19.90;20.20;;;;;;5034541;28;20164;-51
2021/03/23 01:22:04;;;;;;;1.37;0.97;;;19.90;20.20;;;;;;5034593;28;20239;-52
2021/03/23 01:24:32;;;;;;;1.55;1.10;;;19.90;20.20;;;;;;5034314;28;20393;-52
2021/03/23 01:27:00;;;;;;;1.40;1.10;;;19.90;20.20;;;;;;5034202;28;20302;-52
2021/03/23 01:29:26;;;;;;;1.52;1.27;;;19.90;20.20;;;;;;5033804;28;20156;-52
2021/03/23 01:31:57;;;;;;;0.93;0.83;;;19.90;20.20;;;;;;5034200;28;20198;-52
2021/03/23 01:34:23;;;;;;;2.30;1.50;;;19.90;20.20;;;;;;5034276;28;20160;-52
2021/03/23 01:36:49;;;;;;;2.20;1.43;;;19.90;20.20;;;;;;5034263;28;20187;-51
2021/03/23 01:39:17;;;;;;;0.80;0.77;;;20.00;20.20;;;;;;5033591;28;20186;-52
2021/03/23 01:41:43;;;;;;;1.15;1.05;;;19.90;20.20;;;;;;5049387;28;20426;-52
2021/03/23 01:44:09;;;;;;;1.50;0.97;;;19.90;20.20;;;;;;5033570;28;20178;-52
2021/03/23 01:46:47;;;;;;;1.50;0.97;;;19.90;20.20;;;;;;5034289;28;20855;-52
2021/03/23 01:49:15;;;;;;;1.23;1.05;;;19.90;20.20;;;;;;5033855;28;20402;-52
2021/03/23 01:51:44;;;;;;;1.20;1.10;;;19.90;20.20;;;;;;5034081;28;20250;-52
2021/03/23 01:54:18;;;;;;;1.40;1.30;;;19.90;20.20;;;;;;5015828;28;20226;-52
2021/03/23 01:56:45;;;;;;;2.10;1.40;;;19.90;20.20;;;;;;5033765;28;20560;-51
2021/03/23 01:59:12;;;;;;;1.40;1.10;;;19.90;20.20;;;;;;5033364;28;20210;-52
2021/03/23 02:01:37;;;;;;;1.60;0.93;;;19.90;20.20;;;;;;5033782;28;20176;-52
2021/03/23 02:04:05;;;;;;;1.20;1.00;;;19.90;20.70;;;;;;5033558;28;20178;-52
2021/03/23 02:06:43;;;;;;;1.40;1.30;;;19.90;20.20;;;;;;5033747;28;20186;-52
2021/03/23 02:09:23;;;;;;;1.00;0.90;;;19.90;20.20;;;;;;5033655;28;20156;-52
2021/03/23 02:12:00;;;;;;;1.17;1.08;;;19.90;20.20;;;;;;5033636;28;20191;-52
2021/03/23 02:14:34;;;;;;;0.95;0.95;;;19.90;20.20;;;;;;5033268;28;20159;-52
2021/03/23 02:17:45;;;;;;;1.00;0.95;;;19.90;20.20;;;;;;5033814;28;20152;-51
2021/03/23 02:20:19;;;;;;;1.42;1.15;;;19.90;20.20;;;;;;5011669;28;20192;-53
2021/03/23 02:22:48;;;;;;;1.20;1.10;;;19.90;20.20;;;;;;5015819;28;20179;-53
2021/03/23 02:25:26;;;;;;;0.85;0.85;;;19.90;20.20;;;;;;5033614;28;20164;-52
2021/03/23 02:27:53;;;;;;;1.45;1.05;;;19.90;20.20;;;;;;5033637;28;20179;-52
2021/03/23 02:30:43;;;;;;;0.93;0.77;;;19.90;20.20;;;;;;5032975;28;20211;-50
2021/03/23 02:33:09;;;;;;;1.23;1.13;;;19.90;20.20;;;;;;5033721;28;20152;-50
2021/03/23 02:35:36;;;;;;;1.50;1.00;;;19.90;20.20;;;;;;5033510;28;20159;-50
2021/03/23 02:38:03;;;;;;;1.33;1.23;;;19.90;20.20;;;;;;5033526;28;20164;-51
2021/03/23 02:40:31;;;;;;;1.40;1.30;;;19.90;20.20;;;;;;5033549;28;20253;-50
2021/03/23 02:42:57;;;;;;;1.13;1.02;;;19.90;20.20;;;;;;5033610;28;20174;-53
2021/03/23 02:45:24;;;;;;;0.90;0.87;;;19.90;20.20;;;;;;5033036;28;20164;-52
2021/03/23 02:47:50;;;;;;;1.00;0.90;;;19.90;20.20;;;;;;5033436;28;20166;-52
2021/03/23 02:50:18;;;;;;;1.10;1.00;;;19.90;20.20;;;;;;5033084;28;20183;-52
2021/03/23 02:52:44;;;;;;;1.40;1.30;;;19.90;20.20;;;;;;5037149;28;20635;-51
2021/03/23 02:55:11;;;;;;;1.20;1.10;;;19.90;20.20;;;;;;5037205;28;20160;-51
2021/03/23 02:57:37;;;;;;;1.13;1.02;;;19.90;20.20;;;;;;5037232;28;20611;-53
2021/03/23 03:00:14;;;;;;;1.40;1.30;;;19.90;20.20;;;;;;5036566;28;20156;-52
2021/03/23 03:02:40;;;;;;;1.20;1.10;;;19.90;20.20;;;;;;5037140;28;20175;-52
2021/03/23 03:05:10;;;;;;;0.90;0.80;;;19.90;20.20;;;;;;5036989;28;20179;-52
2021/03/23 03:07:35;;;;;;;1.30;1.20;;;19.90;20.20;;;;;;5037123;28;20180;-51
2021/03/23 03:10:01;;;;;;;1.17;1.07;;;19.90;20.20;;;;;;5036736;28;20198;-52
2021/03/23 03:12:29;;;;;;;0.97;0.83;;;19.90;20.20;;;;;;5037084;28;20164;-52
2021/03/23 03:14:57;;;;;;;1.38;1.27;;;19.90;20.20;;;;;;5036335;28;20410;-52
2021/03/23 03:17:23;;;;;;;1.10;1.00;;;19.90;20.20;;;;;;5036967;28;20213;-52
2021/03/23 03:19:49;;;;;;;1.50;1.13;;;19.90;20.20;;;;;;5036506;28;20665;-52
2021/03/23 03:22:14;;;;;;;1.00;1.00;;;19.90;20.20;;;;;;5036720;28;20159;-52
2021/03/23 03:24:40;;;;;;;1.20;1.10;;;19.90;20.20;;;;;;5036665;28;20849;-51
2021/03/23 03:27:09;;;;;;;1.33;1.03;;;19.90;20.20;;;;;;5036401;28;20223;-50
2021/03/23 03:29:34;;;;;;;1.00;1.00;;;19.90;20.20;;;;;;5068227;28;20213;-50
2021/03/23 03:32:03;;;;;;;0.80;0.77;;;19.90;20.20;;;;;;5036435;28;20580;-51
2021/03/23 03:34:29;;;;;;;1.02;0.90;;;19.90;20.20;;;;;;5068376;28;20179;-50
2021/03/23 03:36:55;;;;;;;1.10;1.00;;;19.90;20.20;;;;;;5036565;28;20164;-50
2021/03/23 03:39:20;;;;;;;1.03;0.93;;;19.90;20.20;;;;;;5036458;28;20160;-52
2021/03/23 03:41:46;;;;;;;1.13;1.03;;;19.90;20.20;;;;;;5036328;28;20477;-51
2021/03/23 03:44:12;;;;;;;1.07;1.07;;;19.90;20.20;;;;;;5035900;28;20171;-51
2021/03/23 03:46:40;;;;;;;1.33;1.10;;;19.90;20.20;;;;;;5036336;28;20239;-50
2021/03/23 03:49:06;;;;;;;1.25;1.15;;;19.90;20.20;;;;;;5036019;28;20153;-51
2021/03/23 03:51:32;;;;;;;1.13;1.03;;;19.90;20.20;;;;;;5036129;28;20638;-51
2021/03/23 03:53:57;;;;;;;1.20;1.10;;;19.90;20.20;;;;;;5035887;28;20687;-50
2021/03/23 03:56:23;;;;;;;1.20;1.10;;;19.90;20.20;;;;;;5036167;28;20152;-51
2021/03/23 03:58:50;;;;;;;1.30;1.10;;;19.80;20.10;;;;;;5035836;28;20622;-50
2021/03/23 04:01:18;;;;;;;1.67;1.58;;;19.80;20.10;;;;;;5035689;28;20179;-50
2021/03/23 04:03:44;;;;;;;1.10;1.00;;;19.90;20.20;;;;;;5067812;28;20266;-51
2021/03/23 04:06:09;;;;;;;1.03;0.93;;;19.80;20.10;;;;;;5035769;28;20244;-50
2021/03/23 04:08:39;;;;;;;1.30;1.20;;;19.90;20.20;;;;;;5035881;28;20167;-50
2021/03/23 04:11:07;;;;;;;1.15;1.05;;;19.80;20.10;;;;;;5035631;28;20647;-50
2021/03/23 04:13:33;;;;;;;1.27;1.13;;;19.80;20.10;;;;;;5036004;28;20183;-51
2021/03/23 04:15:59;;;;;;;1.10;1.00;;;19.80;20.10;;;;;;5035132;28;20195;-52
2021/03/23 04:18:26;;;;;;;1.52;1.13;;;19.90;20.20;;;;;;5035737;28;20156;-52
2021/03/23 04:20:54;;;;;;;0.90;0.70;;;19.80;20.10;;;;;;5035612;28;20198;-52
2021/03/23 04:23:29;;;;;;;1.35;1.02;;;19.80;20.10;;;;;;5035844;28;20560;-52
2021/03/23 04:25:55;;;;;;;1.33;0.98;;;19.80;20.10;;;;;;5035169;28;20670;-51
2021/03/23 04:28:21;;;;;;;1.20;1.10;;;19.90;20.20;;;;;;5035584;28;20560;-52
2021/03/23 04:30:48;;;;;;;1.03;0.93;;;19.80;20.10;;;;;;5034890;28;20188;-52
2021/03/23 04:33:15;;;;;;;1.15;1.05;;;19.80;20.10;;;;;;5035448;28;20156;-52
2021/03/23 04:35:43;;;;;;;1.27;1.00;;;19.80;20.10;;;;;;5035337;28;20171;-52
2021/03/23 04:38:15;;;;;;;1.23;1.13;;;19.80;20.10;;;;;;5035307;28;20144;-52
2021/03/23 04:40:40;;;;;;;1.00;1.00;;;19.80;20.10;;;;;;5035118;28;20156;-52
2021/03/23 04:43:10;;;;;;;1.00;0.90;;;19.80;20.10;;;;;;5035177;28;20623;-52
2021/03/23 04:45:36;;;;;;;0.95;0.95;;;19.80;20.10;;;;;;5034779;28;20523;-52
2021/03/23 04:48:02;;;;;;;1.20;1.10;;;19.80;20.10;;;;;;5034983;28;20160;-52
2021/03/23 04:50:28;;;;;;;1.20;1.10;;;19.80;20.10;;;;;;5034962;28;20191;-52
2021/03/23 04:52:54;;;;;;;1.20;1.10;;;19.80;20.10;;;;;;5035113;28;20162;-52
2021/03/23 04:55:20;;;;;;;0.70;0.70;;;19.80;20.10;;;;;;5035091;28;20238;-52
2021/03/23 04:57:48;;;;;;;1.20;1.10;;;19.80;20.10;;;;;;5034943;28;20243;-52
2021/03/23 05:00:14;;;;;;;1.13;1.02;;;19.80;20.10;;;;;;5034652;28;20391;-51
2021/03/23 05:02:42;;;;;;;0.98;0.82;;;19.80;20.10;;;;;;5034765;28;20183;-53
2021/03/23 05:05:10;;;;;;;1.15;1.05;;;19.80;20.10;;;;;;5034783;28;20164;-52
2021/03/23 05:07:36;;;;;;;1.23;1.13;;;19.80;20.10;;;;;;5034673;28;20160;-52
2021/03/23 05:10:06;;;;;;;0.90;0.90;;;19.80;20.10;;;;;;5034561;28;20194;-54
2021/03/23 05:12:32;;;;;;;1.45;1.25;;;19.80;20.10;;;;;;5034629;28;20179;-51
2021/03/23 05:14:58;;;;;;;1.17;1.07;;;19.80;20.10;;;;;;5033315;28;20576;-52
2021/03/23 05:17:24;;;;;;;1.25;1.15;;;19.80;20.10;;;;;;5034861;28;20148;-52
2021/03/23 05:19:49;;;;;;;1.00;0.90;;;19.80;20.10;;;;;;5034447;28;20179;-52
2021/03/23 05:22:15;;;;;;;1.70;1.30;;;19.80;20.10;;;;;;5034537;28;20515;-51
2021/03/23 05:24:41;;;;;;;1.00;0.87;;;19.80;20.10;;;;;;5049677;28;20885;-52
2021/03/23 05:27:07;;;;;;;0.93;0.93;;;19.80;20.10;;;;;;5032984;28;20217;-52
2021/03/23 05:29:33;;;;;;;1.05;1.00;;;19.80;20.10;;;;;;4994378;28;20621;-51
2021/03/23 05:31:59;;;;;;;1.00;0.90;;;19.80;20.10;;;;;;4994856;28;20263;-53
2021/03/23 05:34:26;;;;;;;1.13;0.90;;;19.80;20.10;;;;;;4994876;28;20165;-52
2021/03/23 05:36:52;;;;;;;1.33;1.23;;;19.80;20.10;;;;;;4995023;28;20161;-52
2021/03/23 05:39:18;;;;;;;1.30;1.20;;;19.80;20.10;;;;;;4994743;28;20659;-52
2021/03/23 05:42:08;;;;;;;0.90;0.80;;;19.80;20.10;;;;;;4994755;28;20240;-53
2021/03/23 05:45:02;;;;;;;1.00;1.00;;;19.90;20.20;;;;;;4994318;28;20160;-53
2021/03/23 05:47:33;;;;;;;1.20;1.10;;;19.90;20.20;;;;;;4994896;28;20157;-52
2021/03/23 05:50:12;;;;;;;1.40;1.30;;;19.90;20.20;;;;;;4994396;28;20185;-52
2021/03/23 05:53:10;;;;;;;1.45;1.17;;;19.90;20.20;;;;;;4994717;28;20157;-53
2021/03/23 05:55:48;;;;;;;1.25;1.10;;;19.90;20.20;;;;;;4994208;28;20187;-52
2021/03/23 05:58:24;;;;;;;1.40;1.30;;;19.90;20.20;;;;;;4994446;28;20157;-52
2021/03/23 06:01:14;;;;;;;1.40;1.30;;;19.90;20.20;;;;;;4993902;28;20168;-52
2021/03/23 06:03:49;;;;;;;1.20;1.10;;;19.90;20.20;;;;;;4975167;28;20158;-52
2021/03/23 06:06:41;;;;;;;1.65;1.10;;;19.90;20.20;;;;;;4975102;28;20163;-53
2021/03/23 06:09:12;;;;;;;1.10;1.00;;;19.90;20.20;;;;;;4975079;28;20157;-52
2021/03/23 06:11:43;;;;;;;1.30;1.20;;;19.90;20.20;;;;;;4974898;28;20182;-52
2021/03/23 06:14:30;;;;;;;1.20;1.10;;;19.90;20.20;;;;;;4974160;28;20679;-52
2021/03/23 06:17:09;;;;;;;1.40;1.30;;;19.90;20.20;;;;;;4974988;28;20674;-51
2021/03/23 06:19:57;;;;;;;1.13;1.02;;;19.90;20.20;;;;;;4974781;28;20157;-53
2021/03/23 06:22:48;;;;;;;0.95;0.90;;;19.90;20.20;;;;;;4974720;28;20257;-51
2021/03/23 06:25:41;;;;;;;0.88;0.85;;;19.90;20.20;;;;;;4976189;28;20169;-52
2021/03/23 06:28:25;;;;;;;1.10;1.00;;;19.80;20.10;;;;;;4978795;28;20630;-52
2021/03/23 06:30:53;;;;;;;1.67;1.58;;;19.90;20.20;;;;;;4978166;28;20220;-53
2021/03/23 06:33:23;;;;;;;1.30;1.10;;;19.80;20.10;;;;;;4978828;28;20150;-51
2021/03/23 06:36:01;;;;;;;1.30;1.13;;;19.90;20.20;;;;;;4978441;28;20154;-53
2021/03/23 06:38:27;;;;;;;0.88;0.82;;;19.90;20.20;;;;;;4977428;28;20166;-53
2021/03/23 06:41:22;;;;;;;1.37;1.27;;;19.90;20.20;;;;;;4977143;28;20173;-52
2021/03/23 06:44:17;;;;;;;1.30;1.20;;;19.90;20.20;;;;;;4978419;28;20173;-52
2021/03/23 06:46:47;;;;;;;1.40;1.17;;;19.90;20.20;;;;;;4977476;28;20295;-53
2021/03/23 06:49:13;;;;;;;1.10;1.00;;;19.90;20.20;;;;;;4978413;28;20240;-52
2021/03/23 06:52:00;;;;;;;1.20;1.10;;;19.90;20.20;;;;;;4978286;28;20265;-52
2021/03/23 06:54:40;;;;;;;1.05;0.90;;;19.90;20.20;;;;;;4978457;28;20233;-52
2021/03/23 06:57:11;;;;;;;1.20;1.10;;;19.90;20.20;;;;;;4979239;28;20162;-53
2021/03/23 07:00:00;;;;;;;1.40;1.08;;;19.90;20.20;;;;;;4977858;28;20597;-51
2021/03/23 07:02:31;;;;;;;1.83;1.17;;;19.90;20.20;;;;;;4990715;28;20624;-52
2021/03/23 07:05:32;;;;;;;1.30;1.20;;;20.00;20.20;;;;;;4997485;28;20500;-52
2021/03/23 07:07:58;;;;;;;2.17;1.27;;;19.90;20.20;;;;;;4996032;28;20172;-52
2021/03/23 07:10:31;;;;;;;1.73;1.07;;;20.00;20.20;;;;;;4997513;28;20200;-52
2021/03/23 07:12:58;;;;;;;1.20;1.10;;;20.00;20.20;;;;;;4997301;28;20196;-53
2021/03/23 07:15:29;;;;;;;0.77;0.77;;;20.00;20.20;;;;;;4996609;28;20176;-52
2021/03/23 07:18:12;;;;;;;0.93;0.93;;;20.00;20.20;;;;;;4997101;28;20195;-52
2021/03/23 07:20:42;;;;;;;0.95;0.95;;;20.00;20.20;;;;;;4995885;28;20176;-52
2021/03/23 07:23:29;;;;;;;1.15;1.02;;;20.00;20.20;;;;;;4997294;28;20177;-52
2021/03/23 07:26:25;;;;;;;1.05;0.95;;;20.00;20.20;;;;;;5003564;28;20220;-51
2021/03/23 07:28:54;;;;;;;1.50;1.40;;;20.00;20.20;;;;;;5036173;28;20155;-53
2021/03/23 07:31:29;;;;;;;1.20;1.10;;;20.00;20.20;;;;;;5036437;28;20229;-51
2021/03/23 07:34:17;;;;;;;1.30;1.20;;;20.10;20.30;;;;;;5035932;28;20152;-52
2021/03/23 07:36:50;;;;;;;1.38;1.27;;;20.10;20.30;;;;;;5035417;28;20195;-51
2021/03/23 07:39:31;;;;;;;1.42;1.08;;;20.00;20.20;;;;;;5036104;28;20553;-52
2021/03/23 07:42:02;;;;;;;1.40;1.10;;;20.10;20.30;;;;;;5036065;28;20164;-52
2021/03/23 07:44:41;;;;;;;1.83;1.55;;;20.10;20.30;;;;;;5025804;28;20192;-51
2021/03/23 07:47:32;;;;;;;1.50;1.40;;;20.10;20.30;;;;;;5004575;28;20238;-52
2021/03/23 07:50:17;;;;;;;1.63;1.10;;;20.10;20.30;;;;;;4990254;28;20219;-51
2021/03/23 07:52:45;;;;;;;1.20;1.10;;;20.10;20.20;;;;;;5014847;28;20270;-52
2021/03/23 07:55:26;;;;;;;1.38;1.27;;;20.10;20.30;;;;;;5014628;28;20180;-53
2021/03/23 07:58:22;;;;;;;7.32;1.20;;;20.10;20.20;;;;;;5015081;28;20620;-52
2021/03/23 08:01:06;;;;;;;1.08;0.98;;;20.10;20.20;;;;;;5003917;28;20184;-51
2021/03/23 08:04:06;;;;;;;2.90;1.48;;;20.10;20.20;;;;;;5007076;28;20183;-52
2021/03/23 08:06:51;;;;;;;1.58;1.10;;;20.10;20.20;;;;;;5009427;28;20196;-51
2021/03/23 08:09:28;;;;;;;1.73;0.98;;;20.10;20.10;;;;;;5013232;28;20185;-51
2021/03/23 08:12:12;;;;;;;2.40;1.35;;;20.10;20.10;;;;;;5013724;28;20204;-51
2021/03/23 08:15:01;;;;;;;1.20;1.10;;;20.10;20.10;;;;;;5013971;28;20214;-52
2021/03/23 08:17:45;;;;;;;1.25;1.15;;;20.10;20.10;;;;;;5013062;28;20172;-52
2021/03/23 08:20:29;;;;;;;1.25;1.10;;;20.20;20.10;;;;;;5004471;28;20264;-51
2021/03/23 08:23:36;;;;;;;2.08;1.45;;;20.20;20.10;;;;;;5008628;28;20180;-52
2021/03/23 08:26:30;;;;;;;1.67;1.33;;;20.20;20.00;;;;;;5003992;28;20238;-51
2021/03/23 08:28:55;;;;;;;1.60;1.50;;;20.20;20.00;;;;;;5029911;28;20647;-55
2021/03/23 08:31:56;;;;;;;1.20;1.10;;;20.20;20.00;;;;;;5033529;28;20647;-51
2021/03/23 08:34:43;;;;;;;1.55;1.40;;;20.20;20.00;;;;;;4958277;28;20277;-52
2021/03/23 08:37:24;;;;;;;1.15;1.05;;;20.20;20.00;;;;;;5027306;28;20172;-54
2021/03/23 08:40:15;;;;;;;2.70;1.55;;;20.20;20.00;;;;;;5033001;28;20162;-54
2021/03/23 08:42:46;;;;;;;1.08;1.00;;;20.20;19.90;;;;;;5032649;28;20650;-52
2021/03/23 08:45:14;;;;;;;1.50;1.17;;;20.20;19.90;;;;;;5032392;28;20630;-50
2021/03/23 08:47:47;;;;;;;1.30;1.20;;;20.20;19.90;;;;;;5033452;28;20160;-49
2021/03/23 08:50:19;;;;;;;1.67;1.58;;;20.30;19.90;;;;;;5028125;28;20231;-51
2021/03/23 08:52:50;;;;;;;1.48;1.38;;;20.20;19.90;;;;;;5031929;28;20172;-50
2021/03/23 08:55:27;;;;;;;1.38;1.25;;;20.30;19.90;;;;;;5032669;28;20270;-50
2021/03/23 08:58:10;;;;;;;1.30;1.20;;;20.30;19.90;;;;;;5031186;28;20191;-49
2021/03/23 09:00:42;;;;;;;1.30;1.20;;;20.30;19.80;;;;;;5024307;28;20205;-49
2021/03/23 09:03:08;;;;;;;1.50;1.40;;;20.30;19.80;;;;;;5032939;28;20180;-50
2021/03/23 09:05:50;;;;;;;1.30;1.20;;;20.30;19.80;;;;;;5032849;28;20668;-50
2021/03/23 09:08:49;;;;;;;1.42;1.27;;;20.30;19.80;;;;;;5029052;28;20175;-51
2021/03/23 09:11:15;;;;;;;1.92;1.27;;;20.40;19.40;;;;;;5010927;28;20290;-50
2021/03/23 09:13:41;;;;;;;1.87;1.10;;;20.30;19.80;;;;;;5033796;28;20167;-51
2021/03/23 09:16:14;;;;;;;1.20;1.10;;;20.40;19.80;;;;;;5032526;28;20656;-51
2021/03/23 09:18:59;;;;;;;1.25;1.15;;;20.40;19.80;;;;;;5032167;28;20441;-50
2021/03/23 09:21:24;;;;;;;1.48;1.38;;;20.40;19.80;;;;;;5032713;28;20171;-51
2021/03/23 09:23:52;;;;;;;1.50;1.33;;;20.40;19.80;;;;;;5031935;28;20253;-49
2021/03/23 09:26:43;;;;;;;1.60;1.48;;;20.40;19.80;;;;;;5033448;28;20352;-51
2021/03/23 09:29:24;;;;;;;1.30;1.20;;;20.40;19.70;;;;;;5025950;28;20168;-50
2021/03/23 09:31:53;;;;;;;1.50;1.40;;;20.40;19.70;;;;;;5030289;28;20676;-51
2021/03/23 09:34:56;;;;;;;2.95;1.60;;;20.40;19.70;;;;;;5032605;28;20247;-50
2021/03/23 09:37:42;;;;;;;1.10;1.00;;;20.40;19.70;;;;;;5014024;28;20678;-50
2021/03/23 09:40:19;;;;;;;1.67;1.58;;;20.40;19.60;;;;;;5025375;28;20202;-51
2021/03/23 09:42:50;;;;;;;1.55;1.20;;;20.50;19.70;;;;;;5033279;28;20237;-51
2021/03/23 09:45:28;;;;;;;1.33;1.23;;;20.50;19.70;;;;;;5032123;28;20202;-51
2021/03/23 09:47:58;;;;;;;1.40;1.20;;;20.50;19.60;;;;;;5027867;28;20530;-50
2021/03/23 09:50:40;;;;;;;1.40;1.30;;;20.50;19.60;;;;;;5030590;28;20658;-50
2021/03/23 09:53:19;;;;;;;1.40;1.30;;;20.50;19.70;;;;;;5032469;28;20573;-51
2021/03/23 09:55:44;;;;;;;1.55;1.45;;;20.50;19.80;;;;;;5031445;28;20176;-50
2021/03/23 09:58:28;;;;;;;1.73;1.50;;;20.50;19.90;;;;;;5032044;28;20665;-50
2021/03/23 10:01:12;;;;;;;2.25;1.23;;;20.50;19.90;;;;;;5030474;28;20195;-50
2021/03/23 10:03:38;;;;;;;1.88;1.30;;;20.50;20.00;;;;;;5032217;28;20175;-49
2021/03/23 10:06:07;;;;;;;1.80;1.60;;;20.50;19.50;;;;;;5031130;28;20605;-50
2021/03/23 10:08:35;;;;;;;1.30;1.20;;;20.50;20.00;;;;;;5031908;28;20206;-51
2021/03/23 10:11:13;;;;;;;2.38;1.40;;;20.60;20.10;;;;;;5031659;28;20192;-51
2021/03/23 10:13:46;;;;;;;1.30;1.10;;;20.60;20.10;;;;;;5031813;28;20179;-50
2021/03/23 10:16:29;;;;;;;1.73;1.63;;;20.60;20.10;;;;;;5032307;28;20172;-49
2021/03/23 10:19:18;;;;;;;1.80;1.40;;;20.60;20.10;;;;;;5033294;28;20190;-49
2021/03/23 10:21:53;;;;;;;2.10;1.65;;;20.60;20.10;;;;;;5028152;28;20237;-51
2021/03/23 10:24:26;;;;;;;1.30;1.20;;;20.60;20.10;;;;;;5030438;28;20177;-50
2021/03/23 10:26:54;;;;;;;1.60;1.50;;;20.60;20.10;;;;;;5031571;28;20219;-49
2021/03/23 10:29:26;;;;;;;1.33;1.23;;;20.60;20.10;;;;;;5032727;28;20250;-51
2021/03/23 10:31:57;;;;;;;1.65;1.55;;;20.60;20.10;;;;;;5031457;28;20274;-50
2021/03/23 10:34:28;;;;;;;1.20;1.10;;;20.60;20.10;;;;;;5031765;28;20179;-50
2021/03/23 10:36:57;;;;;;;1.33;1.20;;;20.60;20.10;;;;;;5032493;28;20199;-51
2021/03/23 10:39:41;;;;;;;1.48;1.38;;;20.60;20.10;;;;;;5032048;28;20171;-49
2021/03/23 10:42:24;;;;;;;1.30;1.20;;;20.60;20.10;;;;;;5015364;28;20258;-49
2021/03/23 10:44:52;;;;;;;1.27;1.17;;;20.60;20.10;;;;;;5028663;28;20178;-51
2021/03/23 10:47:36;;;;;;;2.10;1.48;;;20.60;20.10;;;;;;5033662;28;20298;-50
2021/03/23 10:50:24;;;;;;;1.25;1.02;;;20.60;20.10;;;;;;5029451;28;20171;-50
2021/03/23 10:52:51;;;;;;;2.38;1.60;;;20.60;20.10;;;;;;5021080;28;20168;-51
2021/03/23 10:55:32;;;;;;;1.30;1.20;;;20.60;20.10;;;;;;5024961;28;20184;-49
2021/03/23 10:58:23;;;;;;;1.48;1.38;;;20.60;20.10;;;;;;5032090;28;20167;-49
2021/03/23 11:01:16;;;;;;;1.65;1.20;;;20.60;20.70;;;;;;5025825;28;20179;-51
2021/03/23 11:03:44;;;;;;;2.85;1.80;;;20.60;20.10;;;;;;5025264;28;20184;-50
2021/03/23 11:06:32;;;;;;;1.77;1.33;;;20.60;20.10;;;;;;5032126;28;20649;-50
2021/03/23 11:08:58;;;;;;;1.67;1.58;;;20.60;20.20;;;;;;5033369;28;20198;-51
2021/03/23 11:11:24;;;;;;;1.40;1.30;;;20.60;20.10;;;;;;5031010;28;20195;-50
2021/03/23 11:13:50;;;;;;;1.60;1.50;;;20.60;20.20;;;;;;5024347;28;20183;-51
2021/03/23 11:16:19;;;;;;;2.00;1.73;;;20.60;20.20;;;;;;5035507;28;20294;-51
2021/03/23 11:18:46;;;;;;;1.35;1.23;;;20.70;20.30;;;;;;5035930;28;20176;-50
2021/03/23 11:21:17;;;;;;;1.63;1.52;;;20.60;20.20;;;;;;5034084;28;20179;-50
2021/03/23 11:23:51;;;;;;;1.42;1.33;;;20.60;20.10;;;;;;5033846;28;20784;-51
2021/03/23 11:26:23;;;;;;;1.77;1.55;;;20.60;20.10;;;;;;5034351;28;20226;-50
2021/03/23 11:28:56;;;;;;;2.28;1.40;;;20.60;20.20;;;;;;5028323;28;20180;-50
2021/03/23 11:31:26;;;;;;;1.23;1.13;;;20.60;20.20;;;;;;5033694;28;20233;-52
2021/03/23 11:33:52;;;;;;;1.40;1.13;;;20.70;20.30;;;;;;5035961;28;20389;-50
2021/03/23 11:36:19;;;;;;;2.13;1.50;;;20.70;20.30;;;;;;5035550;28;20658;-49
2021/03/23 11:38:45;;;;;;;2.22;1.77;;;20.70;20.30;;;;;;5031673;28;20530;-50
2021/03/23 11:41:24;;;;;;;1.48;1.35;;;20.70;20.30;;;;;;5035748;28;20537;-49
2021/03/23 11:44:07;;;;;;;1.75;1.40;;;20.70;20.30;;;;;;5018846;28;20519;-50
2021/03/23 11:46:49;;;;;;;1.60;1.50;;;20.70;20.30;;;;;;5033427;28;20264;-50
2021/03/23 11:49:25;;;;;;;2.10;1.20;;;20.70;20.30;;;;;;5034150;28;20175;-50
2021/03/23 11:51:52;;;;;;;2.13;1.23;;;20.70;20.30;;;;;;5034881;28;20191;-50
2021/03/23 11:54:18;;;;;;;2.20;1.50;;;20.70;20.30;;;;;;5035664;28;20200;-50
2021/03/23 11:56:44;;;;;;;1.37;1.27;;;20.70;20.30;;;;;;5033815;28;20199;-51
2021/03/23 11:59:10;;;;;;;1.83;1.37;;;20.70;20.30;;;;;;5031964;28;20447;-50
2021/03/23 12:01:36;;;;;;;2.50;1.40;;;20.70;20.30;;;;;;5034864;28;20187;-50
2021/03/23 12:04:02;;;;;;;1.53;1.43;;;20.70;20.20;;;;;;5032049;28;20523;-51
2021/03/23 12:07:05;;;;;;;1.80;1.70;;;20.70;20.10;;;;;;5032461;28;20434;-49
2021/03/23 12:09:39;;;;;;;1.70;1.60;;;20.70;20.00;;;;;;5024411;28;20923;-49
2021/03/23 12:12:24;;;;;;;2.38;2.03;;;20.70;20.00;;;;;;5025197;28;20590;-53
2021/03/23 12:15:05;;;;;;;2.65;2.45;;;20.60;19.80;;;;;;5034359;28;20266;-51
2021/03/23 12:17:40;;;;;;;5.07;2.20;;;20.60;19.70;;;;;;5034783;28;20144;-50
2021/03/23 12:20:18;;;;;;;4.65;1.98;;;20.60;19.60;;;;;;5034748;28;20199;-50
2021/03/23 12:22:48;;;;;;;2.75;2.22;;;20.60;19.50;;;;;;5034906;28;20641;-51
2021/03/23 12:25:15;;;;;;;2.33;2.13;;;20.60;19.40;;;;;;5034625;28;20633;-49
2021/03/23 12:27:44;;;;;;;2.17;2.08;;;20.60;19.30;;;;;;5034794;28;20219;-50
2021/03/23 12:30:15;;;;;;;2.20;2.00;;;20.60;19.30;;;;;;5034254;28;20156;-50
2021/03/23 12:32:41;;;;;;;3.17;2.10;;;20.60;19.20;;;;;;5035172;28;20247;-50
2021/03/23 12:35:12;;;;;;;2.13;1.95;;;20.60;19.20;;;;;;5034339;28;20166;-51
2021/03/23 12:37:40;;;;;;;2.63;2.42;;;20.60;19.10;;;;;;5034502;28;20163;-50
2021/03/23 12:40:09;;;;;;;3.45;2.75;;;20.70;19.10;;;;;;5029158;28;20187;-50
2021/03/23 12:42:34;;;;;;;2.72;2.40;;;20.60;19.20;;;;;;5023547;28;20200;-50
2021/03/23 12:45:01;;;;;;;2.73;2.40;;;20.70;19.10;;;;;;5001136;28;20238;-51
2021/03/23 12:47:28;;;;;;;1.95;1.85;;;20.70;19.10;;;;;;5029183;28;20187;-49
2021/03/23 12:49:53;;;;;;;3.47;2.40;;;20.70;19.10;;;;;;5016016;28;20180;-52
2021/03/23 12:52:22;;;;;;;3.60;2.57;;;20.70;19.10;;;;;;5022916;28;20196;-52
2021/03/23 12:54:52;;;;;;;2.45;2.03;;;20.70;19.10;;;;;;5026925;28;20207;-51
2021/03/23 12:57:23;;;;;;;2.60;2.40;;;20.70;19.10;;;;;;5014816;28;20148;-52
2021/03/23 12:59:51;;;;;;;2.83;2.53;;;20.70;19.10;;;;;;5029956;28;20471;-52
2021/03/23 13:02:24;;;;;;;4.28;2.70;;;20.70;19.10;;;;;;5034605;28;20171;-52
2021/03/23 13:04:49;;;;;;;2.42;2.22;;;20.70;19.10;;;;;;5029607;28;20179;-51
2021/03/23 13:07:30;;;;;;;3.13;2.23;;;20.70;19.10;;;;;;5034455;28;20152;-51
2021/03/23 13:09:58;;;;;;;4.10;2.58;;;20.70;19.10;;;;;;5034157;28;20218;-52
2021/03/23 13:12:26;;;;;;;3.75;2.70;;;20.70;19.10;;;;;;5034278;28;20223;-51
2021/03/23 13:14:52;;;;;;;2.50;2.25;;;20.70;19.10;;;;;;5033746;28;20163;-51
2021/03/23 13:17:20;;;;;;;3.00;2.17;;;21.00;19.30;;;;;;5034257;28;20156;-51